createdAt,value
2019-01-12T00:02:44.154Z,6.30
2019-01-12T00:07:43.698Z,6.30
2019-01-12T00:12:43.417Z,6.30
2019-01-12T00:17:42.948Z,6.20
2019-01-12T00:22:42.491Z,6.20
2019-01-12T00:27:42.053Z,6.30
2019-01-12T00:32:41.590Z,6.20
2019-01-12T00:37:41.121Z,6.20
2019-01-12T00:42:40.749Z,6.30
2019-01-12T00:47:40.289Z,6.30
2019-01-12T00:52:39.822Z,6.40
2019-01-12T00:57:39.466Z,6.20
2019-01-12T01:02:39.157Z,6.20
2019-01-12T01:07:38.797Z,6.10
2019-01-12T01:12:38.345Z,6.00
2019-01-12T01:17:37.886Z,6.00
2019-01-12T01:22:37.624Z,6.00
2019-01-12T01:27:37.229Z,6.00
2019-01-12T01:32:36.766Z,6.00
2019-01-12T01:37:36.313Z,6.00
2019-01-12T01:42:35.861Z,5.90
2019-01-12T01:47:35.411Z,5.80
2019-01-12T01:52:35.135Z,5.90
2019-01-12T01:57:34.846Z,5.90
2019-01-12T02:02:34.382Z,5.90
2019-01-12T02:07:33.950Z,5.90
2019-01-12T02:12:33.485Z,5.80
2019-01-12T02:17:33.018Z,5.70
2019-01-12T02:22:32.575Z,5.70
2019-01-12T02:27:32.107Z,5.70
2019-01-12T02:32:31.647Z,5.70
2019-01-12T02:37:31.231Z,5.70
2019-01-12T02:42:30.770Z,5.70
2019-01-12T02:47:30.306Z,5.60
2019-01-12T02:52:30.096Z,5.60
2019-01-12T02:57:29.643Z,5.50
2019-01-12T03:02:29.227Z,5.60
2019-01-12T03:07:28.842Z,5.60
2019-01-12T03:12:28.392Z,5.70
2019-01-12T03:17:40.154Z,5.70
2019-01-12T03:22:39.725Z,5.80
2019-01-12T03:27:40.338Z,5.90
2019-01-12T03:32:39.902Z,6.00
2019-01-12T03:37:39.431Z,5.80
2019-01-12T03:42:38.971Z,5.70
2019-01-12T03:47:38.597Z,5.80
2019-01-12T03:52:38.155Z,5.90
2019-01-12T03:57:37.692Z,5.90
2019-01-12T04:02:37.239Z,5.90
2019-01-12T04:07:36.783Z,5.70
2019-01-12T04:12:36.321Z,5.80
2019-01-12T04:17:35.872Z,5.70
2019-01-12T04:22:35.410Z,5.90
2019-01-12T04:27:34.972Z,5.80
2019-01-12T04:32:34.702Z,5.80
2019-01-12T04:37:34.343Z,5.80
2019-01-12T04:42:34.966Z,5.70
2019-01-12T04:47:34.513Z,5.70
2019-01-12T04:52:34.125Z,5.60
2019-01-12T04:57:33.709Z,5.70
2019-01-12T05:02:33.252Z,5.60
2019-01-12T05:07:32.825Z,5.60
2019-01-12T05:12:32.367Z,5.70
2019-01-12T05:17:31.903Z,5.70
2019-01-12T05:22:31.458Z,5.70
2019-01-12T05:27:31.037Z,5.70
2019-01-12T05:32:30.582Z,5.80
2019-01-12T05:37:30.117Z,5.80
2019-01-12T05:42:29.685Z,5.80
2019-01-12T05:47:29.241Z,5.80
2019-01-12T05:52:28.780Z,5.90
2019-01-12T05:57:28.330Z,5.80
2019-01-12T06:02:27.881Z,5.80
2019-01-12T06:07:27.431Z,5.90
2019-01-12T06:12:26.966Z,6.00
2019-01-12T06:17:26.534Z,6.00
2019-01-12T06:22:26.074Z,5.90
2019-01-12T06:27:25.615Z,5.90
2019-01-12T06:32:25.155Z,5.90
2019-01-12T06:37:24.771Z,5.90
2019-01-12T06:42:24.401Z,5.90
2019-01-12T06:47:23.959Z,6.00
2019-01-12T06:52:23.503Z,5.90
2019-01-12T06:57:23.067Z,5.90
2019-01-12T07:02:22.610Z,6.00
2019-01-12T07:07:22.157Z,6.00
2019-01-12T07:12:21.707Z,6.00
2019-01-12T07:17:21.254Z,5.90
2019-01-12T07:22:20.806Z,5.90
2019-01-12T07:27:20.356Z,5.90
2019-01-12T07:32:19.938Z,5.90
2019-01-12T07:37:19.482Z,6.00
2019-01-12T07:42:19.025Z,6.00
2019-01-12T07:47:18.583Z,5.90
2019-01-12T07:52:18.122Z,5.90
2019-01-12T07:57:17.654Z,5.90
2019-01-12T08:02:17.199Z,5.80
2019-01-12T08:07:16.754Z,5.80
2019-01-12T08:12:16.343Z,5.90
2019-01-12T08:17:15.895Z,6.00
2019-01-12T08:22:15.430Z,6.20
2019-01-12T08:27:16.132Z,6.30
2019-01-12T08:32:15.803Z,6.20
2019-01-12T08:37:15.354Z,6.30
2019-01-12T08:42:14.897Z,6.20
2019-01-12T08:47:14.438Z,6.20
2019-01-12T08:52:14.034Z,6.20
2019-01-12T08:57:13.570Z,6.00
2019-01-12T09:02:13.133Z,6.00
2019-01-12T09:07:12.676Z,6.10
2019-01-12T09:12:12.231Z,6.00
2019-01-12T09:17:11.811Z,5.80
2019-01-12T09:22:11.351Z,5.90
2019-01-12T09:27:10.963Z,6.00
2019-01-12T09:32:10.529Z,6.10
2019-01-12T09:37:10.560Z,6.00
2019-01-12T09:42:10.151Z,6.10
2019-01-12T09:47:09.705Z,6.20
2019-01-12T09:52:09.325Z,6.30
2019-01-12T09:57:09.148Z,6.40
2019-01-12T10:02:08.870Z,6.50
2019-01-12T10:07:08.419Z,6.60
2019-01-12T10:12:07.959Z,6.50
2019-01-12T10:17:07.502Z,6.60
2019-01-12T10:22:07.046Z,6.70
2019-01-12T10:27:06.617Z,6.70
2019-01-12T10:32:06.149Z,6.70
2019-01-12T10:37:06.155Z,6.80
2019-01-12T10:42:05.789Z,6.60
2019-01-12T10:47:05.416Z,6.60
2019-01-12T10:52:05.310Z,6.60
2019-01-12T10:57:05.552Z,6.70
2019-01-12T11:02:06.829Z,6.70
2019-01-12T11:07:07.374Z,6.70
2019-01-12T11:12:08.083Z,6.60
2019-01-12T11:17:08.667Z,6.80
2019-01-12T11:22:09.205Z,6.90
2019-01-12T11:27:12.330Z,6.90
2019-01-12T11:32:10.155Z,6.80
2019-01-12T11:37:10.571Z,6.90
2019-01-12T11:42:10.274Z,7.00
2019-01-12T11:47:11.059Z,7.10
2019-01-12T11:52:10.589Z,6.90
2019-01-12T11:57:18.951Z,6.80
2019-01-12T12:02:14.455Z,6.70
2019-01-12T12:07:20.034Z,6.70
2019-01-12T12:12:19.926Z,6.70
2019-01-12T12:17:22.869Z,6.80
2019-01-12T12:22:22.455Z,6.80
2019-01-12T12:27:25.971Z,6.80
2019-01-12T12:32:23.235Z,6.80
2019-01-12T12:37:22.791Z,6.90
2019-01-12T12:42:22.342Z,6.80
2019-01-12T12:47:21.901Z,6.90
2019-01-12T12:52:21.443Z,7.00
2019-01-12T12:57:21.007Z,7.10
2019-01-12T13:02:20.560Z,7.10
2019-01-12T13:07:20.090Z,7.20
2019-01-12T13:12:19.750Z,7.40
2019-01-12T13:17:19.289Z,7.10
2019-01-12T13:22:18.818Z,7.00
2019-01-12T13:27:18.353Z,6.90
2019-01-12T13:32:17.887Z,6.90
2019-01-12T13:37:17.490Z,7.00
2019-01-12T13:42:17.030Z,6.90
2019-01-12T13:47:20.839Z,6.90
2019-01-12T13:52:17.799Z,6.80
2019-01-12T13:57:17.335Z,6.80
2019-01-12T14:02:17.139Z,6.80
2019-01-12T14:07:16.674Z,6.60
2019-01-12T14:12:16.215Z,6.60
2019-01-12T14:17:15.741Z,6.50
2019-01-12T14:22:15.277Z,6.50
2019-01-12T14:27:14.811Z,6.40
2019-01-12T14:32:14.343Z,6.30
2019-01-12T14:37:13.873Z,6.20
2019-01-12T14:42:13.417Z,6.10
2019-01-12T14:47:12.959Z,6.00
2019-01-12T14:52:12.497Z,6.00
2019-01-12T14:57:12.054Z,6.00
2019-01-12T15:02:11.605Z,5.90
2019-01-12T15:07:11.216Z,6.00
2019-01-12T15:12:10.743Z,5.90
2019-01-12T15:17:13.529Z,5.80
2019-01-12T15:22:15.727Z,5.80
2019-01-12T15:27:17.936Z,5.80
2019-01-12T15:32:20.024Z,5.80
2019-01-12T15:37:23.999Z,5.80
2019-01-12T15:42:26.991Z,5.90
2019-01-12T15:47:28.955Z,5.70
2019-01-12T15:52:28.537Z,5.80
2019-01-12T15:57:28.081Z,5.70
2019-01-12T16:02:27.599Z,5.70
2019-01-12T16:07:27.147Z,5.80
2019-01-12T16:12:26.681Z,5.80
2019-01-12T16:17:26.294Z,5.80
2019-01-12T16:22:25.846Z,5.80
2019-01-12T16:27:25.374Z,5.80
2019-01-12T16:32:25.102Z,5.90
2019-01-12T16:37:24.836Z,5.80
2019-01-12T16:42:24.640Z,5.80
2019-01-12T16:47:24.374Z,5.70
2019-01-12T16:52:23.910Z,5.80
2019-01-12T16:57:23.447Z,5.70
2019-01-12T17:02:23.610Z,5.80
2019-01-12T17:07:23.238Z,5.80
2019-01-12T17:12:22.807Z,5.90
2019-01-12T17:17:22.414Z,5.80
2019-01-12T17:22:22.475Z,5.80
2019-01-12T17:27:22.246Z,5.70
2019-01-12T17:32:22.234Z,5.70
2019-01-12T17:37:21.787Z,5.80
2019-01-12T17:42:21.484Z,5.80
2019-01-12T17:47:21.042Z,5.80
2019-01-12T17:52:20.770Z,5.90
2019-01-12T17:57:20.309Z,6.00
2019-01-12T18:02:19.931Z,6.00
2019-01-12T18:07:19.487Z,6.00
2019-01-12T18:12:20.126Z,6.10
2019-01-12T18:17:19.774Z,6.10
2019-01-12T18:22:19.307Z,6.10
2019-01-12T18:27:20.262Z,6.20
2019-01-12T18:32:19.902Z,6.20
2019-01-12T18:37:19.445Z,6.20
2019-01-12T18:42:18.998Z,6.20
2019-01-12T18:47:18.548Z,6.30
2019-01-12T18:52:18.076Z,6.30
2019-01-12T18:57:17.603Z,6.40
2019-01-12T19:02:17.182Z,6.40
2019-01-12T19:07:16.725Z,6.40
2019-01-12T19:12:16.275Z,6.50
2019-01-12T19:17:15.798Z,6.60
2019-01-12T19:22:15.482Z,6.50
2019-01-12T19:27:15.017Z,6.50
2019-01-12T19:32:14.567Z,6.50
2019-01-12T19:37:14.106Z,6.50
2019-01-12T19:42:13.666Z,6.60
2019-01-12T19:47:13.214Z,6.60
2019-01-12T19:52:12.822Z,6.60
2019-01-12T19:57:12.369Z,6.70
2019-01-12T20:02:11.917Z,6.70
2019-01-12T20:07:11.469Z,6.80
2019-01-12T20:12:11.042Z,6.80
2019-01-12T20:17:10.660Z,6.70
2019-01-12T20:22:11.406Z,6.70
2019-01-12T20:27:11.123Z,6.60
2019-01-12T20:32:19.714Z,6.70
2019-01-12T20:37:53.246Z,6.70
2019-01-12T20:43:18.354Z,6.70
2019-01-12T20:48:51.566Z,6.80
2019-01-12T20:54:27.145Z,6.80
2019-01-12T20:59:39.938Z,6.80
2019-01-12T21:05:10.524Z,6.80
2019-01-12T21:10:32.454Z,6.80
2019-01-12T21:15:40.370Z,6.70
2019-01-12T21:20:40.039Z,6.70
2019-01-12T21:25:39.587Z,6.70
2019-01-12T21:30:39.459Z,6.70
2019-01-12T21:35:38.995Z,6.70
2019-01-12T21:40:38.727Z,6.70
2019-01-12T21:45:38.717Z,6.60
2019-01-12T21:50:39.570Z,6.60
2019-01-12T21:55:39.291Z,6.60
2019-01-12T22:00:39.002Z,6.60
2019-01-12T22:05:38.674Z,6.70
2019-01-12T22:10:38.479Z,6.60
2019-01-12T22:15:38.200Z,6.70
2019-01-12T22:20:37.927Z,6.70
2019-01-12T22:25:37.457Z,6.60
2019-01-12T22:30:37.264Z,6.60
2019-01-12T22:35:36.866Z,6.60
2019-01-12T22:40:36.417Z,6.60
2019-01-12T22:45:35.974Z,6.50
2019-01-12T22:50:35.519Z,6.70
2019-01-12T22:55:35.044Z,6.60
2019-01-12T23:00:58.229Z,6.60
2019-01-12T23:05:58.633Z,6.60
2019-01-12T23:10:58.169Z,6.60
2019-01-12T23:15:57.700Z,6.60
2019-01-12T23:20:57.238Z,6.60
2019-01-12T23:25:56.843Z,6.60
2019-01-12T23:30:56.362Z,6.60
2019-01-12T23:35:56.061Z,6.60
2019-01-12T23:40:55.589Z,6.60
2019-01-12T23:45:55.129Z,6.60
2019-01-12T23:50:54.661Z,6.60
2019-01-12T23:55:54.203Z,6.70
